Time;durP1;ratioP1;P1;durP2;ratioP2;P2;SDS_P1;SDS_P2;PMS_P1;PMS_P2;Temp;Humidity;BMP_temperature;BMP_pressure;BME280_temperature;BME280_humidity;BME280_pressure;Samples;Min_cycle;Max_cycle;Signal;HPM_P1;HPM_P2
2022/04/09 00:01:36;;;;;;;5.33;1.80;;;2.50;99.90;;;;;;5091192;28;20633;-84
2022/04/09 00:04:04;;;;;;;2.93;1.43;;;2.50;99.90;;;;;;5074329;28;20224;-84
2022/04/09 00:06:30;;;;;;;6.80;1.80;;;2.60;99.90;;;;;;5092084;28;20228;-83
2022/04/09 00:08:57;;;;;;;6.40;1.83;;;2.60;99.90;;;;;;5084782;28;20232;-84
2022/04/09 00:11:24;;;;;;;6.47;1.70;;;2.60;99.90;;;;;;5091390;28;20273;-84
2022/04/09 00:13:52;;;;;;;6.73;1.63;;;2.60;99.90;;;;;;5074909;28;20220;-83
2022/04/09 00:16:19;;;;;;;6.60;2.27;;;2.60;99.90;;;;;;5092064;28;20251;-83
2022/04/09 00:18:46;;;;;;;5.20;1.60;;;2.60;99.90;;;;;;5089717;28;20220;-84
2022/04/09 00:21:13;;;;;;;3.70;1.73;;;2.60;99.90;;;;;;5079534;28;20253;-84
2022/04/09 00:23:39;;;;;;;6.73;2.00;;;2.60;99.90;;;;;;5074772;28;20764;-82
2022/04/09 00:26:06;;;;;;;10.27;1.90;;;2.60;99.90;;;;;;5095363;28;20729;-84
2022/04/09 00:28:33;;;;;;;7.07;1.87;;;2.60;99.90;;;;;;5072715;28;20670;-82
2022/04/09 00:31:02;;;;;;;8.23;1.90;;;2.50;99.90;;;;;;5076580;28;20222;-84
2022/04/09 00:33:31;;;;;;;8.40;1.93;;;2.50;99.90;;;;;;5091287;28;20509;-83
2022/04/09 00:35:58;;;;;;;5.53;1.70;;;2.40;99.90;;;;;;5081093;28;20720;-82
2022/04/09 00:38:27;;;;;;;7.97;1.80;;;2.40;99.90;;;;;;5089502;28;20233;-82
2022/04/09 00:40:54;;;;;;;6.20;1.67;;;2.30;99.90;;;;;;5091822;28;20305;-82
2022/04/09 00:43:21;;;;;;;7.03;2.00;;;2.40;99.90;;;;;;5089126;28;20650;-83
2022/04/09 00:45:49;;;;;;;3.10;1.37;;;2.30;99.90;;;;;;5075864;28;21017;-84
2022/04/09 00:48:20;;;;;;;5.03;1.73;;;2.30;99.90;;;;;;5073490;28;20236;-82
2022/04/09 00:50:47;;;;;;;9.03;2.70;;;2.30;99.90;;;;;;5090822;28;20918;-82
2022/04/09 00:53:16;;;;;;;3.40;1.40;;;2.20;99.90;;;;;;5069113;28;20235;-81
2022/04/09 00:58:30;;;;;;;4.00;1.50;;;2.20;99.90;;;;;;5078720;28;20311;-81
2022/04/09 01:00:57;;;;;;;2.93;1.20;;;2.20;99.90;;;;;;5075763;28;20314;-81
2022/04/09 01:03:25;;;;;;;9.30;1.60;;;2.10;99.90;;;;;;5087967;28;20743;-82
2022/04/09 01:05:52;;;;;;;6.00;1.33;;;2.10;99.90;;;;;;5090493;28;20226;-81
2022/04/09 01:08:19;;;;;;;6.70;1.30;;;2.10;99.90;;;;;;5082453;28;20254;-82
2022/04/09 01:10:47;;;;;;;6.73;1.27;;;2.10;99.90;;;;;;5073866;28;20246;-81
2022/04/09 01:13:16;;;;;;;6.80;1.70;;;2.00;99.90;;;;;;5074542;28;20244;-81
2022/04/09 01:15:42;;;;;;;4.37;1.40;;;2.00;99.90;;;;;;5083401;28;20228;-82
2022/04/09 01:18:10;;;;;;;3.90;1.40;;;2.00;99.90;;;;;;5070111;28;20485;-83
2022/04/09 01:20:38;;;;;;;5.00;1.50;;;2.00;99.90;;;;;;5084226;28;20223;-81
2022/04/09 01:23:06;;;;;;;4.20;1.40;;;1.90;99.90;;;;;;5067911;28;20789;-82
2022/04/09 01:25:34;;;;;;;5.63;1.50;;;1.90;99.90;;;;;;5075707;28;20262;-81
2022/04/09 01:28:03;;;;;;;7.13;1.20;;;1.90;99.90;;;;;;5073821;28;20269;-81
2022/04/09 01:30:29;;;;;;;4.90;1.30;;;1.90;99.90;;;;;;5077871;28;20219;-81
2022/04/09 01:32:57;;;;;;;7.83;1.90;;;1.90;99.90;;;;;;5081948;28;20291;-82
2022/04/09 01:35:25;;;;;;;4.83;1.80;;;1.90;99.90;;;;;;5076268;28;20256;-81
2022/04/09 01:37:52;;;;;;;7.90;1.60;;;1.90;99.90;;;;;;5072637;28;20316;-85
2022/04/09 01:40:20;;;;;;;6.53;1.50;;;1.90;99.90;;;;;;5075531;28;20228;-83
2022/04/09 01:42:49;;;;;;;5.77;1.33;;;1.90;99.90;;;;;;5076690;28;20259;-82
2022/04/09 01:45:16;;;;;;;8.07;1.90;;;2.00;99.90;;;;;;5073000;28;20307;-81
2022/04/09 01:47:43;;;;;;;6.03;1.47;;;2.00;99.90;;;;;;5087678;28;20232;-82
2022/04/09 01:50:11;;;;;;;5.23;1.87;;;2.00;99.90;;;;;;5073761;28;20297;-82
2022/04/09 01:52:38;;;;;;;4.83;1.60;;;2.00;99.90;;;;;;5081431;28;20808;-82
2022/04/09 01:55:06;;;;;;;6.53;1.30;;;2.00;99.90;;;;;;5072574;28;20227;-82
2022/04/09 01:57:34;;;;;;;6.30;1.50;;;2.10;99.90;;;;;;5072337;28;20239;-82
2022/04/09 02:00:05;;;;;;;4.77;1.40;;;2.10;99.90;;;;;;5074494;28;20253;-84
2022/04/09 02:02:40;;;;;;;7.30;1.67;;;2.10;99.90;;;;;;5086631;28;20246;-84
2022/04/09 02:05:08;;;;;;;6.60;1.53;;;2.10;99.90;;;;;;5070963;28;20251;-82
2022/04/09 02:07:36;;;;;;;6.40;1.23;;;2.00;99.90;;;;;;5075422;28;20224;-82
2022/04/09 02:10:04;;;;;;;6.37;1.50;;;2.00;99.90;;;;;;5073972;28;20224;-81
2022/04/09 02:12:36;;;;;;;2.93;1.40;;;2.00;99.90;;;;;;5072502;28;20226;-82
2022/04/09 02:15:03;;;;;;;4.00;1.30;;;2.00;99.90;;;;;;5071039;28;20219;-84
2022/04/09 02:17:30;;;;;;;5.53;1.70;;;1.90;99.90;;;;;;5073212;28;20326;-82
2022/04/09 02:19:57;;;;;;;3.13;1.17;;;1.90;99.90;;;;;;5080842;28;20884;-85
2022/04/09 02:22:24;;;;;;;4.23;1.50;;;1.80;99.90;;;;;;5069254;28;20272;-85
2022/04/09 02:24:51;;;;;;;4.73;1.40;;;1.80;99.90;;;;;;5075491;28;20233;-84
2022/04/09 02:27:18;;;;;;;3.60;1.40;;;1.80;99.90;;;;;;5085751;28;20223;-84
2022/04/09 02:29:47;;;;;;;5.47;1.60;;;1.70;99.90;;;;;;5075916;28;20426;-85
2022/04/09 02:32:13;;;;;;;6.63;1.60;;;1.70;99.90;;;;;;5083939;28;20257;-83
2022/04/09 02:34:41;;;;;;;4.03;1.30;;;1.70;99.90;;;;;;5073581;28;20220;-82
2022/04/09 02:37:08;;;;;;;6.00;1.80;;;1.70;99.90;;;;;;5087913;28;20753;-84
2022/04/09 02:39:34;;;;;;;7.17;1.60;;;1.70;99.90;;;;;;5074988;28;20236;-83
2022/04/09 02:42:01;;;;;;;5.27;1.47;;;1.60;99.90;;;;;;5072071;28;20806;-83
2022/04/09 02:44:29;;;;;;;8.13;1.40;;;1.60;99.90;;;;;;5068396;28;20235;-83
2022/04/09 02:46:57;;;;;;;5.27;1.43;;;1.60;99.90;;;;;;5073840;28;20242;-84
2022/04/09 02:49:35;;;;;;;5.33;1.60;;;1.60;99.90;;;;;;5071797;28;20232;-83
2022/04/09 02:52:03;;;;;;;6.90;1.47;;;1.50;99.90;;;;;;5069646;28;20873;-81
2022/04/09 02:54:30;;;;;;;5.07;1.60;;;1.50;99.90;;;;;;5077566;28;20241;-82
2022/04/09 02:56:57;;;;;;;5.03;1.80;;;1.50;99.90;;;;;;5075834;28;21018;-81
2022/04/09 02:59:29;;;;;;;5.87;1.80;;;1.50;99.90;;;;;;5066327;28;20240;-82
2022/04/09 03:01:58;;;;;;;5.80;1.87;;;1.50;99.90;;;;;;5087821;28;20223;-82
2022/04/09 03:04:25;;;;;;;6.27;1.43;;;1.50;99.90;;;;;;5072605;28;20542;-82
2022/04/09 03:06:52;;;;;;;5.20;1.80;;;1.50;99.90;;;;;;5072322;28;20227;-81
2022/04/09 03:09:20;;;;;;;5.47;2.03;;;1.50;99.90;;;;;;5078715;28;20265;-82
2022/04/09 03:11:47;;;;;;;7.17;1.90;;;1.50;99.90;;;;;;5072607;28;20220;-81
2022/04/09 03:14:14;;;;;;;4.57;1.43;;;1.50;99.90;;;;;;5074697;28;20772;-81
2022/04/09 03:16:41;;;;;;;4.33;1.50;;;1.50;99.90;;;;;;5074686;28;20277;-82
2022/04/09 03:19:09;;;;;;;8.10;2.30;;;1.50;99.90;;;;;;5073448;28;20250;-82
2022/04/09 03:21:36;;;;;;;8.10;2.00;;;1.50;99.90;;;;;;5076112;28;20854;-82
2022/04/09 03:24:03;;;;;;;5.83;1.53;;;1.50;99.90;;;;;;5071065;28;20223;-83
2022/04/09 03:26:31;;;;;;;6.90;1.80;;;1.50;99.90;;;;;;5071148;28;20226;-84
2022/04/09 03:28:58;;;;;;;4.83;1.97;;;1.50;99.90;;;;;;5073195;28;20216;-83
2022/04/09 03:31:26;;;;;;;3.60;1.50;;;1.40;99.90;;;;;;5075347;28;20258;-82
2022/04/09 03:33:53;;;;;;;5.60;1.60;;;1.40;99.90;;;;;;5070830;28;20228;-82
2022/04/09 03:36:23;;;;;;;4.40;1.47;;;1.40;99.90;;;;;;5072080;28;20226;-82
2022/04/09 03:38:50;;;;;;;4.63;1.60;;;1.40;99.90;;;;;;5072349;28;20223;-81
2022/04/09 03:41:19;;;;;;;6.60;2.60;;;1.40;99.90;;;;;;5082807;28;20282;-81
2022/04/09 03:43:51;;;;;;;8.73;2.47;;;1.40;99.90;;;;;;5070255;28;20302;-81
2022/04/09 03:46:19;;;;;;;6.83;2.80;;;1.40;99.90;;;;;;5070742;28;20228;-82
2022/04/09 03:48:47;;;;;;;6.63;1.93;;;1.40;99.90;;;;;;5080336;28;21253;-82
2022/04/09 03:51:15;;;;;;;5.40;1.70;;;1.40;99.90;;;;;;5078141;28;20216;-84
2022/04/09 03:53:45;;;;;;;5.60;1.77;;;1.40;99.90;;;;;;5070594;28;20237;-85
2022/04/09 03:56:12;;;;;;;8.27;2.23;;;1.40;99.90;;;;;;5071992;28;20221;-83
2022/04/09 03:58:45;;;;;;;5.63;1.60;;;1.50;99.90;;;;;;5076284;28;20307;-83
2022/04/09 04:01:14;;;;;;;7.33;2.17;;;1.50;99.90;;;;;;5089871;28;20220;-83
2022/04/09 04:03:43;;;;;;;4.90;1.90;;;1.60;99.90;;;;;;5090612;28;20585;-81
2022/04/09 04:06:09;;;;;;;5.90;2.27;;;1.70;99.90;;;;;;5071543;28;20234;-81
2022/04/09 04:08:36;;;;;;;4.47;2.00;;;1.70;99.90;;;;;;5075285;28;20381;-84
2022/04/09 04:11:06;;;;;;;4.77;1.50;;;1.70;99.90;;;;;;5073772;28;20227;-82
2022/04/09 04:13:38;;;;;;;5.03;1.70;;;1.80;99.90;;;;;;5072083;28;20281;-81
2022/04/09 04:16:05;;;;;;;9.77;2.87;;;1.80;99.90;;;;;;5070001;28;20280;-82
2022/04/09 04:18:35;;;;;;;9.57;1.97;;;1.80;99.90;;;;;;5073877;28;20222;-84
2022/04/09 04:21:03;;;;;;;6.73;2.10;;;1.80;99.90;;;;;;5074258;28;20243;-81
2022/04/09 04:23:30;;;;;;;6.00;1.90;;;1.80;99.90;;;;;;5071993;28;20252;-82
2022/04/09 04:26:07;;;;;;;5.40;2.00;;;1.80;99.90;;;;;;5085647;28;20881;-83
2022/04/09 04:28:35;;;;;;;11.87;2.53;;;1.80;99.90;;;;;;5074786;28;20315;-82
2022/04/09 04:31:04;;;;;;;7.53;2.40;;;1.80;99.90;;;;;;5086363;28;20232;-84
2022/04/09 04:33:32;;;;;;;9.27;2.50;;;1.70;99.90;;;;;;5074809;28;20250;-82
2022/04/09 04:35:58;;;;;;;5.53;2.07;;;1.70;99.90;;;;;;5072408;28;20231;-82
2022/04/09 04:38:29;;;;;;;8.47;2.20;;;1.70;99.90;;;;;;5072430;28;20224;-85
2022/04/09 04:40:58;;;;;;;9.80;2.57;;;1.70;99.90;;;;;;5072970;28;20226;-82
2022/04/09 04:43:28;;;;;;;7.13;2.40;;;1.80;99.90;;;;;;5070357;28;20733;-82
2022/04/09 04:45:55;;;;;;;7.10;2.23;;;1.70;99.90;;;;;;5072015;28;20242;-81
2022/04/09 04:48:22;;;;;;;9.27;2.50;;;1.70;99.90;;;;;;5067103;28;20305;-84
2022/04/09 04:50:51;;;;;;;8.93;2.50;;;1.70;99.90;;;;;;5073029;28;20229;-81
2022/04/09 04:53:18;;;;;;;10.57;3.07;;;1.70;99.90;;;;;;5071008;28;20227;-82
2022/04/09 04:55:51;;;;;;;8.90;2.40;;;1.70;99.90;;;;;;5072587;28;20311;-82
2022/04/09 04:58:19;;;;;;;7.90;3.07;;;1.70;99.90;;;;;;5070758;28;20239;-82
2022/04/09 05:00:58;;;;;;;9.33;2.63;;;1.70;99.90;;;;;;5072186;28;20221;-81
2022/04/09 05:03:25;;;;;;;16.00;3.13;;;1.70;99.90;;;;;;5070187;28;20225;-81
2022/04/09 05:06:02;;;;;;;10.00;2.23;;;1.70;99.90;;;;;;5071475;28;20304;-83
2022/04/09 05:08:29;;;;;;;7.27;3.33;;;1.80;99.90;;;;;;5069769;28;20229;-82
2022/04/09 05:10:56;;;;;;;7.03;2.40;;;1.80;99.90;;;;;;5073065;28;20221;-85
2022/04/09 05:13:28;;;;;;;9.80;2.57;;;1.80;99.90;;;;;;5071421;28;20372;-85
2022/04/09 05:15:55;;;;;;;8.87;2.70;;;1.80;99.90;;;;;;5072738;28;20248;-85
2022/04/09 05:18:24;;;;;;;9.17;2.60;;;1.90;99.90;;;;;;5074001;28;20231;-86
2022/04/09 05:20:52;;;;;;;10.47;2.83;;;1.90;99.90;;;;;;5076388;28;20302;-85
2022/04/09 05:23:19;;;;;;;10.57;2.80;;;2.00;99.90;;;;;;5069908;28;20224;-86
2022/04/09 05:25:47;;;;;;;10.40;2.70;;;2.10;99.90;;;;;;5073729;28;20223;-84
2022/04/09 05:28:16;;;;;;;7.87;2.50;;;2.10;99.90;;;;;;5074255;28;20223;-85
2022/04/09 05:30:44;;;;;;;8.93;3.13;;;2.20;99.90;;;;;;5068070;28;20221;-84
2022/04/09 05:33:12;;;;;;;10.03;3.10;;;2.30;99.90;;;;;;5072330;28;20221;-87
2022/04/09 05:35:45;;;;;;;11.27;2.90;;;2.30;99.90;;;;;;5078597;28;20289;-84
2022/04/09 05:38:12;;;;;;;11.67;2.87;;;2.40;99.90;;;;;;5067401;28;20284;-85
2022/04/09 05:40:39;;;;;;;11.90;3.07;;;2.50;99.90;;;;;;5072691;28;20255;-85
2022/04/09 05:43:14;;;;;;;7.20;2.80;;;2.50;99.90;;;;;;5080057;28;20565;-84
2022/04/09 05:45:43;;;;;;;8.87;2.50;;;2.60;99.90;;;;;;5079148;28;20649;-84
2022/04/09 05:48:11;;;;;;;8.50;3.33;;;2.70;99.90;;;;;;5081083;28;20802;-84
2022/04/09 05:51:05;;;;;;;7.63;2.47;;;2.70;99.90;;;;;;5083705;28;20228;-84
2022/04/09 05:53:37;;;;;;;7.63;2.57;;;2.80;99.90;;;;;;5072208;28;20220;-84
2022/04/09 05:56:05;;;;;;;10.50;2.80;;;2.90;99.90;;;;;;5070764;28;20400;-85
2022/04/09 05:58:40;;;;;;;7.17;2.20;;;3.00;99.90;;;;;;5070500;28;20235;-84
2022/04/09 06:01:07;;;;;;;8.00;2.33;;;3.10;99.90;;;;;;5067735;28;20277;-80
2022/04/09 06:03:35;;;;;;;7.63;2.20;;;3.20;99.90;;;;;;5069122;28;20237;-83
2022/04/09 06:06:05;;;;;;;6.27;2.60;;;3.30;99.90;;;;;;5071282;28;20299;-84
2022/04/09 06:08:37;;;;;;;10.53;2.60;;;3.40;99.90;;;;;;5076708;28;20233;-82
2022/04/09 06:11:14;;;;;;;10.07;2.50;;;3.60;99.90;;;;;;5074718;28;22008;-82
2022/04/09 06:13:41;;;;;;;10.07;2.50;;;3.80;99.90;;;;;;5071979;28;20228;-83
2022/04/09 06:16:09;;;;;;;9.03;2.30;;;3.90;99.90;;;;;;5081962;28;20221;-85
2022/04/09 06:18:41;;;;;;;7.67;2.57;;;4.10;99.90;;;;;;5079920;28;20217;-83
2022/04/09 06:21:13;;;;;;;11.23;2.97;;;4.10;99.90;;;;;;5071416;28;20223;-84
2022/04/09 06:23:39;;;;;;;10.97;2.97;;;4.10;99.90;;;;;;5077143;28;20224;-83
2022/04/09 06:26:07;;;;;;;6.37;2.40;;;4.10;99.90;;;;;;5073655;28;20226;-87
2022/04/09 06:28:36;;;;;;;9.27;2.73;;;4.10;99.90;;;;;;5075406;28;20272;-83
2022/04/09 06:31:03;;;;;;;8.67;2.10;;;4.00;99.90;;;;;;5074714;28;20288;-87
2022/04/09 06:33:33;;;;;;;4.87;2.17;;;4.00;99.90;;;;;;5074077;28;20238;-84
2022/04/09 06:36:05;;;;;;;7.27;2.20;;;4.00;99.90;;;;;;5073992;28;20252;-85
2022/04/09 06:38:34;;;;;;;8.53;2.10;;;4.00;99.90;;;;;;5082990;28;20255;-84
2022/04/09 06:41:04;;;;;;;6.90;2.40;;;3.90;99.90;;;;;;5072309;28;20237;-85
2022/04/09 06:43:36;;;;;;;12.73;2.27;;;3.90;99.90;;;;;;5073419;28;20248;-83
2022/04/09 06:46:14;;;;;;;3.67;2.13;;;3.80;99.90;;;;;;5073430;28;20233;-83
2022/04/09 06:48:52;;;;;;;4.90;1.90;;;3.80;99.90;;;;;;5072070;28;20232;-81
2022/04/09 06:51:36;;;;;;;5.30;1.90;;;3.80;99.90;;;;;;5064881;28;20225;-82
2022/04/09 06:54:12;;;;;;;5.73;1.73;;;3.80;99.90;;;;;;5066074;28;20231;-82
2022/04/09 06:56:39;;;;;;;5.97;1.83;;;3.80;99.90;;;;;;5068722;28;20247;-81
2022/04/09 06:59:06;;;;;;;10.07;2.27;;;3.80;99.90;;;;;;5068768;28;20217;-81
2022/04/09 07:01:34;;;;;;;13.30;2.70;;;3.90;99.90;;;;;;5067958;28;20229;-81
2022/04/09 07:04:01;;;;;;;8.30;2.03;;;3.90;99.90;;;;;;5069522;28;20267;-83
2022/04/09 07:06:30;;;;;;;10.60;2.60;;;4.00;99.90;;;;;;5084883;28;20236;-81
2022/04/09 07:08:56;;;;;;;7.50;2.47;;;4.10;99.90;;;;;;5091372;28;20325;-81
2022/04/09 07:11:24;;;;;;;7.70;2.07;;;4.10;99.90;;;;;;5089095;28;20252;-81
2022/04/09 07:13:51;;;;;;;7.43;2.50;;;4.20;99.90;;;;;;5075684;28;20245;-81
2022/04/09 07:16:18;;;;;;;9.17;2.30;;;4.20;99.90;;;;;;5086454;28;20214;-81
2022/04/09 07:18:45;;;;;;;11.67;2.23;;;4.20;99.90;;;;;;5077696;28;20758;-81
2022/04/09 07:21:12;;;;;;;8.00;2.53;;;4.20;99.90;;;;;;5088585;28;20478;-84
2022/04/09 07:23:38;;;;;;;7.73;2.10;;;4.20;99.90;;;;;;5079153;28;20232;-86
2022/04/09 07:26:06;;;;;;;6.10;2.03;;;4.30;99.90;;;;;;5089782;28;20229;-86
2022/04/09 07:28:34;;;;;;;6.33;2.03;;;4.40;99.90;;;;;;5088605;28;20313;-84
2022/04/09 07:31:01;;;;;;;7.03;2.77;;;4.60;99.90;;;;;;5068016;28;20230;-82
2022/04/09 07:33:27;;;;;;;7.27;2.30;;;4.70;99.90;;;;;;5086083;28;20281;-80
2022/04/09 07:35:54;;;;;;;6.60;2.07;;;4.70;99.90;;;;;;5085245;28;20876;-83
2022/04/09 07:38:21;;;;;;;5.47;2.10;;;4.90;99.90;;;;;;5066581;28;20795;-82
2022/04/09 07:40:48;;;;;;;6.53;2.37;;;5.00;99.90;;;;;;5085807;28;20228;-82
2022/04/09 07:43:15;;;;;;;6.40;1.80;;;5.10;99.90;;;;;;5066620;28;20251;-82
2022/04/09 07:45:44;;;;;;;4.90;1.77;;;5.20;99.90;;;;;;5067700;28;20311;-82
2022/04/09 07:48:11;;;;;;;6.60;1.60;;;5.40;99.90;;;;;;5084295;28;20229;-82
2022/04/09 07:50:38;;;;;;;3.40;1.70;;;5.60;99.90;;;;;;5067645;28;20223;-82
2022/04/09 07:53:07;;;;;;;2.10;1.17;;;5.80;99.90;;;;;;5066571;28;20229;-82
2022/04/09 07:55:34;;;;;;;2.37;1.30;;;6.10;99.90;;;;;;5066806;28;20232;-83
2022/04/09 07:58:01;;;;;;;4.30;1.50;;;6.40;99.90;;;;;;5066696;28;20338;-82
2022/04/09 08:00:36;;;;;;;2.50;1.23;;;6.80;99.90;;;;;;5066959;28;20658;-82
2022/04/09 08:03:04;;;;;;;4.10;1.60;;;7.10;99.90;;;;;;5066648;28;20228;-82
2022/04/09 08:05:32;;;;;;;6.57;1.33;;;7.30;99.90;;;;;;5085118;28;20706;-82
2022/04/09 08:08:00;;;;;;;3.00;1.70;;;7.50;99.90;;;;;;5067871;28;20233;-82
2022/04/09 08:10:28;;;;;;;3.53;1.70;;;7.70;99.90;;;;;;5085563;28;20331;-82
2022/04/09 08:12:56;;;;;;;3.50;1.40;;;8.00;99.90;;;;;;5067064;28;20311;-82
2022/04/09 08:15:23;;;;;;;6.87;1.63;;;8.30;99.90;;;;;;5086189;28;20227;-82
2022/04/09 08:17:54;;;;;;;4.27;1.40;;;8.60;99.40;;;;;;5066838;28;20236;-84
2022/04/09 08:20:22;;;;;;;3.33;1.50;;;8.70;99.10;;;;;;5076119;28;20220;-85
2022/04/09 08:22:49;;;;;;;3.43;1.30;;;8.90;98.50;;;;;;5091100;28;20294;-86
2022/04/09 08:25:16;;;;;;;4.30;1.40;;;8.90;98.20;;;;;;5091557;28;20709;-86
2022/04/09 08:27:44;;;;;;;3.70;1.67;;;9.00;98.10;;;;;;5091798;28;20335;-87
2022/04/09 08:30:12;;;;;;;5.40;1.67;;;9.00;98.30;;;;;;5077468;28;20274;-87
2022/04/09 08:32:39;;;;;;;2.57;1.13;;;9.00;98.00;;;;;;5070572;28;20303;-84
2022/04/09 08:35:06;;;;;;;5.47;1.30;;;9.00;97.70;;;;;;5090880;28;20748;-84
2022/04/09 08:37:35;;;;;;;4.97;1.23;;;8.90;97.60;;;;;;5082477;28;20236;-84
2022/04/09 08:40:02;;;;;;;3.67;1.43;;;8.90;97.40;;;;;;5092629;28;20681;-84
2022/04/09 08:42:30;;;;;;;6.63;1.90;;;8.80;97.20;;;;;;5079750;28;20295;-86
2022/04/09 08:45:00;;;;;;;7.37;2.13;;;8.60;97.10;;;;;;5071168;28;20315;-84
2022/04/09 08:47:28;;;;;;;5.10;1.43;;;8.30;97.40;;;;;;5088991;28;20227;-87
2022/04/09 08:49:56;;;;;;;6.33;1.57;;;8.10;97.60;;;;;;5094077;28;20229;-84
2022/04/09 08:52:24;;;;;;;6.73;2.20;;;7.90;97.80;;;;;;5093401;28;20232;-84
2022/04/09 08:54:52;;;;;;;5.43;1.37;;;7.60;97.80;;;;;;5080801;28;21264;-88
2022/04/09 08:57:19;;;;;;;3.07;1.50;;;7.40;97.90;;;;;;5080491;28;20221;-85
2022/04/09 08:59:46;;;;;;;4.43;1.40;;;7.30;98.70;;;;;;5095544;28;20230;-84
2022/04/09 09:02:13;;;;;;;6.07;1.27;;;7.30;99.80;;;;;;5092381;28;20227;-85
2022/04/09 09:04:39;;;;;;;1.40;0.90;;;7.40;99.90;;;;;;5080625;28;20305;-86
2022/04/09 09:07:21;;;;;;;3.80;1.37;;;7.60;99.90;;;;;;5077778;28;20224;-84
2022/04/09 09:09:48;;;;;;;2.90;1.20;;;7.80;99.60;;;;;;5076517;28;20236;-84
2022/04/09 09:12:29;;;;;;;3.83;1.10;;;8.10;99.50;;;;;;5073652;28;20243;-85
2022/04/09 09:14:57;;;;;;;4.13;1.30;;;8.30;98.50;;;;;;5074505;28;20599;-85
2022/04/09 09:17:31;;;;;;;3.77;1.13;;;8.40;98.50;;;;;;5080029;28;20224;-85
2022/04/09 09:19:59;;;;;;;3.33;1.60;;;8.50;98.60;;;;;;5073087;28;20216;-83
2022/04/09 09:22:39;;;;;;;7.00;1.40;;;8.70;99.20;;;;;;5066623;28;20662;-83
2022/04/09 09:25:08;;;;;;;3.90;1.33;;;9.00;99.10;;;;;;5088937;28;20225;-83
2022/04/09 09:27:36;;;;;;;5.30;1.23;;;9.20;98.70;;;;;;5075374;28;20230;-84
2022/04/09 09:30:04;;;;;;;3.40;1.17;;;9.40;97.40;;;;;;5091834;28;20932;-84
2022/04/09 09:32:31;;;;;;;5.33;1.47;;;9.60;97.60;;;;;;5074076;28;20238;-85
2022/04/09 09:34:59;;;;;;;5.23;1.23;;;9.70;97.70;;;;;;5093127;28;20236;-84
2022/04/09 09:37:28;;;;;;;7.23;1.57;;;9.70;97.30;;;;;;5073559;28;20825;-83
2022/04/09 09:39:56;;;;;;;4.93;1.40;;;9.70;96.60;;;;;;5076884;28;20663;-84
2022/04/09 09:42:23;;;;;;;5.93;1.07;;;9.60;96.70;;;;;;5090105;28;20229;-83
2022/04/09 09:44:51;;;;;;;5.97;1.37;;;9.40;96.30;;;;;;5091377;28;20573;-86
2022/04/09 09:47:18;;;;;;;4.00;1.10;;;9.20;96.70;;;;;;5091245;28;20301;-84
2022/04/09 09:49:55;;;;;;;8.00;1.30;;;9.00;97.60;;;;;;5086927;28;20240;-85
2022/04/09 09:52:29;;;;;;;7.23;1.23;;;8.90;98.30;;;;;;5091190;28;20220;-83
2022/04/09 09:54:58;;;;;;;4.67;1.63;;;8.90;98.40;;;;;;5072730;28;20841;-84
2022/04/09 09:57:27;;;;;;;3.77;1.17;;;9.00;97.90;;;;;;5074881;28;20235;-83
2022/04/09 09:59:57;;;;;;;3.27;1.10;;;9.00;98.00;;;;;;5072821;28;20225;-84
2022/04/09 10:02:25;;;;;;;2.67;1.17;;;9.10;97.80;;;;;;5077499;28;20224;-83
2022/04/09 10:04:53;;;;;;;1.87;0.80;;;9.00;97.10;;;;;;5088582;28;20316;-84
2022/04/09 10:07:20;;;;;;;2.90;1.30;;;9.00;97.00;;;;;;5090657;28;20312;-84
2022/04/09 10:09:49;;;;;;;4.97;1.20;;;8.80;96.70;;;;;;5073712;28;20220;-84
2022/04/09 10:12:19;;;;;;;4.23;1.20;;;8.70;96.40;;;;;;5090945;28;20308;-85
2022/04/09 10:14:51;;;;;;;3.97;1.57;;;8.40;95.90;;;;;;5096281;28;20232;-84
2022/04/09 10:17:20;;;;;;;5.27;1.63;;;8.20;95.90;;;;;;5081966;28;20226;-84
2022/04/09 10:19:55;;;;;;;4.30;1.03;;;7.90;96.30;;;;;;5094754;28;20223;-83
2022/04/09 10:22:23;;;;;;;2.00;0.70;;;7.70;97.30;;;;;;5090670;28;20245;-84
2022/04/09 10:24:52;;;;;;;3.90;1.10;;;7.50;97.70;;;;;;5090204;28;20223;-82
2022/04/09 10:27:34;;;;;;;2.90;1.13;;;7.50;98.60;;;;;;5070545;28;20258;-87
2022/04/09 10:30:02;;;;;;;5.33;1.30;;;7.50;99.30;;;;;;5083141;28;20220;-85
2022/04/09 10:32:43;;;;;;;3.57;1.07;;;7.70;99.60;;;;;;5089287;28;20232;-84
2022/04/09 10:35:26;;;;;;;3.80;1.20;;;7.90;99.80;;;;;;5073913;28;20235;-85
2022/04/09 10:38:17;;;;;;;4.07;1.00;;;8.10;98.90;;;;;;5082425;28;20733;-85
2022/04/09 10:41:24;;;;;;;4.00;1.13;;;8.30;96.60;;;;;;5071525;28;20227;-86
2022/04/09 10:43:51;;;;;;;4.33;1.00;;;8.40;96.60;;;;;;5085461;28;20227;-86
2022/04/09 10:46:21;;;;;;;5.37;1.33;;;8.30;96.60;;;;;;5076383;28;20228;-86
2022/04/09 10:48:49;;;;;;;4.47;1.10;;;8.20;96.10;;;;;;5074420;28;20849;-85
2022/04/09 10:51:18;;;;;;;3.53;1.30;;;8.00;96.10;;;;;;5090718;28;20726;-83
2022/04/09 10:53:47;;;;;;;3.20;1.07;;;7.90;96.00;;;;;;5073776;28;20257;-85
2022/04/09 10:56:20;;;;;;;4.03;1.10;;;7.50;96.10;;;;;;5072776;28;20265;-83
2022/04/09 10:59:01;;;;;;;2.93;0.80;;;7.10;96.60;;;;;;5075725;28;20708;-85
2022/04/09 11:01:50;;;;;;;3.30;0.90;;;6.60;97.00;;;;;;5090208;28;20225;-86
2022/04/09 11:04:37;;;;;;;2.40;0.80;;;6.20;97.80;;;;;;5064140;28;20243;-86
2022/04/09 11:07:05;;;;;;;2.27;0.93;;;5.90;98.00;;;;;;5067270;28;20234;-85
2022/04/09 11:09:43;;;;;;;3.00;0.93;;;5.70;98.20;;;;;;5068060;28;20384;-86
2022/04/09 11:12:10;;;;;;;5.67;1.30;;;5.50;99.00;;;;;;5081298;28;20264;-85
2022/04/09 11:14:45;;;;;;;3.60;0.80;;;5.40;99.90;;;;;;5071415;28;20237;-85
2022/04/09 11:17:18;;;;;;;2.97;0.67;;;5.60;99.90;;;;;;5071797;28;20291;-86
2022/04/09 11:19:48;;;;;;;2.23;0.83;;;5.80;99.90;;;;;;5071991;28;20899;-85
2022/04/09 11:22:14;;;;;;;5.33;1.10;;;6.20;99.90;;;;;;5077114;28;20224;-85
2022/04/09 11:24:42;;;;;;;3.90;0.90;;;6.50;99.90;;;;;;5086489;28;20276;-86
2022/04/09 11:27:10;;;;;;;6.57;1.53;;;6.90;99.90;;;;;;5086712;28;20242;-83
2022/04/09 11:29:38;;;;;;;3.63;0.90;;;7.30;99.90;;;;;;5087315;28;20223;-86
2022/04/09 11:32:05;;;;;;;3.70;1.10;;;7.60;99.90;;;;;;5069455;28;20751;-86
2022/04/09 11:34:53;;;;;;;3.67;1.20;;;7.90;99.90;;;;;;5070199;28;20246;-87
2022/04/09 11:37:20;;;;;;;4.90;1.23;;;8.20;99.60;;;;;;5085031;28;20874;-85
2022/04/09 11:39:49;;;;;;;5.67;1.23;;;8.40;99.90;;;;;;5086540;28;20317;-86
2022/04/09 11:42:16;;;;;;;4.50;1.33;;;8.50;99.80;;;;;;5077913;28;20304;-84
2022/04/09 11:44:43;;;;;;;6.03;1.80;;;8.70;99.70;;;;;;5067167;28;20330;-86
2022/04/09 11:47:12;;;;;;;4.47;1.40;;;8.80;98.60;;;;;;5068512;28;20229;-86
2022/04/09 11:49:39;;;;;;;5.10;1.17;;;9.00;98.70;;;;;;5071115;28;20228;-86
2022/04/09 11:52:08;;;;;;;5.37;1.33;;;9.20;98.60;;;;;;5065697;28;20230;-86
2022/04/09 11:54:38;;;;;;;7.27;1.47;;;9.40;98.30;;;;;;5065372;28;20222;-86
2022/04/09 11:57:10;;;;;;;9.53;2.27;;;9.50;96.90;;;;;;5068121;28;20230;-86
2022/04/09 11:59:37;;;;;;;5.57;1.20;;;9.60;96.40;;;;;;5069821;28;20226;-86
2022/04/09 12:02:15;;;;;;;5.23;1.23;;;9.50;94.90;;;;;;5089343;28;20237;-83
2022/04/09 12:04:42;;;;;;;4.00;1.20;;;9.20;94.10;;;;;;5080377;28;20569;-84
2022/04/09 12:07:11;;;;;;;6.03;1.50;;;8.70;93.80;;;;;;5097893;28;20285;-84
2022/04/09 12:09:38;;;;;;;6.50;1.60;;;8.20;94.90;;;;;;5093146;28;20258;-87
2022/04/09 12:12:08;;;;;;;7.50;1.50;;;7.90;96.10;;;;;;5076477;28;20223;-85
2022/04/09 12:14:35;;;;;;;6.57;1.67;;;7.70;97.20;;;;;;5075737;28;20658;-84
2022/04/09 12:17:11;;;;;;;6.90;1.90;;;7.60;97.70;;;;;;5076463;28;20232;-85
2022/04/09 12:19:43;;;;;;;5.80;1.50;;;7.70;98.30;;;;;;5093939;28;20251;-86
2022/04/09 12:22:20;;;;;;;7.23;1.60;;;7.70;98.50;;;;;;5092862;28;20235;-86
2022/04/09 12:24:48;;;;;;;6.80;1.87;;;7.90;98.50;;;;;;5091166;28;20224;-85
2022/04/09 12:27:15;;;;;;;8.97;2.57;;;8.00;98.50;;;;;;5071265;28;20221;-85
2022/04/09 12:29:50;;;;;;;6.47;1.97;;;8.20;98.00;;;;;;5072211;28;20228;-82
2022/04/09 12:32:23;;;;;;;6.27;2.10;;;8.40;97.60;;;;;;5076293;28;20230;-84
2022/04/09 12:34:54;;;;;;;9.30;2.53;;;8.50;97.00;;;;;;5093205;28;20222;-87
2022/04/09 12:37:23;;;;;;;13.53;2.20;;;8.70;97.10;;;;;;5074070;28;20258;-85
2022/04/09 12:39:50;;;;;;;8.77;2.33;;;9.00;97.50;;;;;;5093166;28;20596;-86
2022/04/09 12:42:17;;;;;;;8.77;1.90;;;9.20;97.60;;;;;;5096747;28;20248;-86
2022/04/09 12:44:44;;;;;;;8.70;2.00;;;9.40;96.90;;;;;;5078873;28;20225;-86
2022/04/09 12:47:11;;;;;;;11.20;2.73;;;9.70;96.10;;;;;;5071961;28;20221;-85
2022/04/09 12:49:40;;;;;;;11.13;2.60;;;9.70;94.90;;;;;;5077191;28;21035;-85
2022/04/09 12:52:10;;;;;;;8.43;2.07;;;9.80;94.20;;;;;;5078423;28;20218;-85
2022/04/09 12:54:39;;;;;;;10.53;3.10;;;9.70;93.90;;;;;;5090637;28;20222;-85
2022/04/09 12:57:06;;;;;;;11.20;2.13;;;9.60;93.90;;;;;;5093551;28;20221;-85
2022/04/09 12:59:33;;;;;;;10.00;2.60;;;9.50;93.80;;;;;;5077145;28;20222;-85
2022/04/09 13:02:00;;;;;;;9.97;3.23;;;9.30;93.50;;;;;;5075724;28;20307;-85
2022/04/09 13:04:26;;;;;;;8.80;2.10;;;9.20;93.20;;;;;;5073846;28;20333;-87
2022/04/09 13:06:53;;;;;;;4.73;1.43;;;8.90;93.10;;;;;;5074424;28;20239;-86
2022/04/09 13:09:20;;;;;;;7.73;1.80;;;8.70;92.60;;;;;;5092174;28;20224;-85